createdAt,value
2019-02-20T00:00:33.581Z,98023.14
2019-02-20T00:03:02.060Z,98022.48
2019-02-20T00:05:30.450Z,98024.14
2019-02-20T00:07:58.719Z,98016.90
2019-02-20T00:10:27.075Z,98014.52
2019-02-20T00:12:55.658Z,98019.00
2019-02-20T00:15:24.049Z,98018.80
2019-02-20T00:17:52.398Z,98025.81
2019-02-20T00:20:20.708Z,98027.42
2019-02-20T00:22:48.986Z,98033.33
2019-02-20T00:25:17.346Z,98027.90
2019-02-20T00:27:45.749Z,98028.00
2019-02-20T00:30:14.037Z,98023.15
2019-02-20T00:32:44.017Z,98024.09
2019-02-20T00:35:12.445Z,98030.16
2019-02-20T00:37:40.724Z,98028.17
2019-02-20T00:40:10.781Z,98032.45
2019-02-20T00:42:39.209Z,98026.63
2019-02-20T00:45:14.027Z,98026.32
2019-02-20T00:47:58.714Z,98030.84
2019-02-20T00:50:28.721Z,98031.17
2019-02-20T00:53:04.296Z,98024.99
2019-02-20T00:55:32.740Z,98028.06
2019-02-20T00:58:01.170Z,98031.14
2019-02-20T01:00:29.437Z,98030.14
2019-02-20T01:02:57.758Z,98032.59
2019-02-20T01:05:26.085Z,98030.92
2019-02-20T01:07:54.408Z,98027.81
2019-02-20T01:10:22.698Z,98030.41
2019-02-20T01:12:50.994Z,98036.82
2019-02-20T01:15:19.337Z,98038.36
2019-02-20T01:17:50.426Z,98031.16
2019-02-20T01:20:18.832Z,98030.02
2019-02-20T01:22:47.278Z,98035.61
2019-02-20T01:25:15.730Z,98037.94
2019-02-20T01:27:44.078Z,98044.38
2019-02-20T01:30:12.913Z,98049.57
2019-02-20T01:32:47.285Z,98044.98
2019-02-20T01:35:15.617Z,98044.15
2019-02-20T01:37:46.892Z,98043.86
2019-02-20T01:40:15.170Z,98044.14
2019-02-20T01:42:43.508Z,98039.80
2019-02-20T01:45:11.844Z,98043.20
2019-02-20T01:47:40.096Z,98043.27
2019-02-20T01:50:10.932Z,98040.45
2019-02-20T01:52:39.320Z,98042.05
2019-02-20T01:55:08.643Z,98041.72
2019-02-20T01:57:37.106Z,98036.68
2019-02-20T02:00:08.470Z,98036.40
2019-02-20T02:02:36.808Z,98039.36
2019-02-20T02:05:14.564Z,98037.81
2019-02-20T02:07:36.148Z,98038.89
2019-02-20T02:10:05.843Z,98028.98
2019-02-20T02:12:34.258Z,98034.19
2019-02-20T02:15:02.554Z,98029.08
2019-02-20T02:17:32.448Z,98034.28
2019-02-20T02:20:00.858Z,98031.65
2019-02-20T02:22:29.209Z,98033.27
2019-02-20T02:24:57.489Z,98032.39
2019-02-20T02:27:25.772Z,98040.40
2019-02-20T02:29:54.084Z,98039.23
2019-02-20T02:32:25.117Z,98041.45
2019-02-20T02:34:55.751Z,98037.92
2019-02-20T02:37:24.045Z,98028.55
2019-02-20T02:39:52.305Z,98029.08
2019-02-20T02:42:20.623Z,98034.67
2019-02-20T02:44:48.994Z,98035.06
2019-02-20T02:47:17.443Z,98031.69
2019-02-20T02:49:45.692Z,98037.55
2019-02-20T02:52:13.977Z,98037.38
2019-02-20T02:54:42.289Z,98033.50
2019-02-20T02:57:10.566Z,98043.80
2019-02-20T02:59:38.979Z,98036.75
2019-02-20T03:02:07.330Z,98041.72
2019-02-20T03:04:35.600Z,98040.30
2019-02-20T03:07:03.888Z,98034.33
2019-02-20T03:09:32.144Z,98031.17
2019-02-20T03:12:00.458Z,98029.25
2019-02-20T03:14:28.723Z,97814.37
2019-02-20T03:16:56.982Z,98037.45
2019-02-20T03:19:25.337Z,98036.04
2019-02-20T03:21:53.600Z,98034.83
2019-02-20T03:24:21.937Z,98036.97
2019-02-20T03:26:50.265Z,98029.50
2019-02-20T03:29:18.557Z,98024.38
2019-02-20T03:31:46.824Z,98030.19
2019-02-20T03:34:15.123Z,98030.88
2019-02-20T03:36:43.377Z,98036.89
2019-02-20T03:39:11.663Z,98042.58
2019-02-20T03:41:39.931Z,98045.05
2019-02-20T03:44:08.173Z,98043.13
2019-02-20T03:46:36.497Z,98046.46
2019-02-20T03:49:04.737Z,98044.88
2019-02-20T03:51:33.003Z,98048.08
2019-02-20T03:54:01.301Z,98046.67
2019-02-20T03:56:29.564Z,98054.44
2019-02-20T03:58:57.961Z,98054.99
2019-02-20T04:01:26.245Z,98061.01
2019-02-20T04:03:54.518Z,98063.86
2019-02-20T04:06:22.820Z,98067.45
2019-02-20T04:08:51.082Z,98058.61
2019-02-20T04:11:19.446Z,98056.85
2019-02-20T04:13:47.732Z,98059.65
2019-02-20T04:16:15.986Z,98053.47
2019-02-20T04:18:44.241Z,98056.84
2019-02-20T04:21:12.554Z,98055.44
2019-02-20T04:23:40.820Z,98056.81
2019-02-20T04:26:09.911Z,98060.53
2019-02-20T04:28:38.745Z,98062.84
2019-02-20T04:31:07.353Z,98070.95
2019-02-20T04:33:35.896Z,98065.84
2019-02-20T04:36:04.357Z,98068.48
2019-02-20T04:38:32.663Z,98066.91
2019-02-20T04:41:00.940Z,98064.42
2019-02-20T04:43:29.440Z,98061.95
2019-02-20T04:45:57.742Z,98063.55
2019-02-20T04:48:26.156Z,98060.38
2019-02-20T04:50:54.619Z,98065.84
2019-02-20T04:53:23.218Z,98062.48
2019-02-20T04:55:51.787Z,98061.62
2019-02-20T04:58:21.820Z,98060.90
2019-02-20T05:00:50.384Z,98063.75
2019-02-20T05:03:18.717Z,98072.75
2019-02-20T05:05:47.044Z,98081.59
2019-02-20T05:08:15.401Z,98083.70
2019-02-20T05:10:43.674Z,98078.58
2019-02-20T05:13:11.998Z,98076.83
2019-02-20T05:15:40.258Z,98083.53
2019-02-20T05:18:08.519Z,98079.64
2019-02-20T05:20:36.793Z,98083.19
2019-02-20T05:23:05.042Z,98085.64
2019-02-20T05:25:33.400Z,98086.36
2019-02-20T05:28:01.745Z,98083.89
2019-02-20T05:30:30.048Z,98081.06
2019-02-20T05:33:01.330Z,98081.42
2019-02-20T05:35:29.679Z,98072.06
2019-02-20T05:37:57.942Z,98075.41
2019-02-20T05:40:26.305Z,98070.43
2019-02-20T05:42:54.564Z,98087.02
2019-02-20T05:45:22.972Z,98083.27
2019-02-20T05:47:51.239Z,98078.69
2019-02-20T05:50:19.503Z,98064.93
2019-02-20T05:52:49.410Z,98069.88
2019-02-20T05:55:17.689Z,98078.19
2019-02-20T05:57:46.031Z,98079.09
2019-02-20T06:00:14.565Z,98082.08
2019-02-20T06:02:42.876Z,98087.94
2019-02-20T06:05:11.133Z,98093.92
2019-02-20T06:07:39.408Z,98084.92
2019-02-20T06:10:09.276Z,98082.97
2019-02-20T06:12:37.550Z,98084.19
2019-02-20T06:15:08.171Z,98089.85
2019-02-20T06:17:36.433Z,98096.41
2019-02-20T06:20:07.949Z,98101.00
2019-02-20T06:22:36.264Z,98100.12
2019-02-20T06:25:05.302Z,98103.27
2019-02-20T06:27:33.673Z,98100.10
2019-02-20T06:30:02.037Z,98102.23
2019-02-20T06:32:30.335Z,98108.61
2019-02-20T06:34:58.569Z,98120.09
2019-02-20T06:37:26.840Z,98118.52
2019-02-20T06:39:55.123Z,98119.56
2019-02-20T06:42:25.060Z,98127.52
2019-02-20T06:44:53.354Z,98126.83
2019-02-20T06:47:21.630Z,98136.73
2019-02-20T06:49:49.889Z,98148.90
2019-02-20T06:52:18.164Z,98197.67
2019-02-20T06:54:53.699Z,98141.49
2019-02-20T06:57:16.738Z,98149.11
2019-02-20T06:59:45.041Z,98147.16
2019-02-20T07:02:13.382Z,98145.91
2019-02-20T07:04:44.910Z,98144.33
2019-02-20T07:07:31.517Z,98135.86
2019-02-20T07:10:11.864Z,98137.80
2019-02-20T07:12:49.034Z,98141.36
2019-02-20T07:15:46.138Z,98146.12
2019-02-20T07:18:23.485Z,98153.02
2019-02-20T07:21:00.939Z,98157.25
2019-02-20T07:23:49.256Z,98163.80
2019-02-20T07:26:38.585Z,98164.87
2019-02-20T07:29:15.579Z,98162.56
2019-02-20T07:31:43.867Z,98163.95
2019-02-20T07:34:12.214Z,98170.67
2019-02-20T07:36:40.572Z,98175.98
2019-02-20T07:39:08.872Z,98184.14
2019-02-20T07:41:37.164Z,98181.13
2019-02-20T07:44:05.452Z,98168.88
2019-02-20T07:46:33.785Z,98164.66
2019-02-20T07:49:02.155Z,98164.28
2019-02-20T07:51:30.393Z,98168.34
2019-02-20T07:53:58.757Z,98167.59
2019-02-20T07:56:27.049Z,98163.16
2019-02-20T07:58:55.303Z,98158.34
2019-02-20T08:01:23.634Z,98157.23
2019-02-20T08:03:51.912Z,98156.33
2019-02-20T08:06:20.196Z,98146.19
2019-02-20T08:08:48.612Z,98156.02
2019-02-20T08:11:16.966Z,98156.13
2019-02-20T08:13:45.275Z,98159.95
2019-02-20T08:16:13.565Z,98166.26
2019-02-20T08:18:41.927Z,98170.30
2019-02-20T08:21:10.172Z,98168.08
2019-02-20T08:23:38.453Z,98170.84
2019-02-20T08:26:06.747Z,98182.83
2019-02-20T08:28:35.117Z,98176.36
2019-02-20T08:31:06.469Z,98181.42
2019-02-20T08:33:34.868Z,98178.01
2019-02-20T08:36:03.244Z,98182.72
2019-02-20T08:38:31.565Z,98184.08
2019-02-20T08:40:59.926Z,98189.11
2019-02-20T08:43:28.414Z,98186.69
2019-02-20T08:45:56.689Z,98191.64
2019-02-20T08:48:27.938Z,97476.58
2019-02-20T08:50:59.044Z,98182.09
2019-02-20T08:53:33.447Z,98184.73
2019-02-20T08:56:01.810Z,98188.05
2019-02-20T08:58:31.857Z,98191.27
2019-02-20T09:01:00.321Z,98179.20
2019-02-20T09:03:28.596Z,98176.98
2019-02-20T09:05:59.425Z,98183.73
2019-02-20T09:08:29.510Z,98190.44
2019-02-20T09:10:59.402Z,98199.27
2019-02-20T09:13:29.468Z,98196.50
2019-02-20T09:15:57.888Z,98177.20
2019-02-20T09:18:26.370Z,98181.76
2019-02-20T09:20:54.709Z,98197.28
2019-02-20T09:23:23.195Z,98199.45
2019-02-20T09:25:51.632Z,98207.19
2019-02-20T09:28:19.942Z,98211.52
2019-02-20T09:30:50.032Z,98211.76
2019-02-20T09:33:18.313Z,98212.66
2019-02-20T09:35:46.829Z,97481.19
2019-02-20T09:38:15.097Z,98214.84
2019-02-20T09:40:46.330Z,98220.19
2019-02-20T09:43:14.788Z,98217.63
2019-02-20T09:45:44.601Z,98217.17
2019-02-20T09:48:13.313Z,98211.86
2019-02-20T09:50:41.612Z,98219.95
2019-02-20T09:53:11.631Z,98219.83
2019-02-20T09:55:39.996Z,98224.12
2019-02-20T09:58:09.399Z,98229.62
2019-02-20T10:00:37.821Z,98227.98
2019-02-20T10:03:11.677Z,98228.20
2019-02-20T10:05:39.970Z,98224.22
2019-02-20T10:08:08.269Z,98221.55
2019-02-20T10:10:36.536Z,98227.36
2019-02-20T10:13:04.810Z,98222.67
2019-02-20T10:15:33.171Z,98221.58
2019-02-20T10:18:01.449Z,98224.31
2019-02-20T10:20:32.081Z,98225.66
2019-02-20T10:23:00.440Z,98224.69
2019-02-20T10:25:28.796Z,98222.06
2019-02-20T10:27:57.074Z,98223.73
2019-02-20T10:30:25.424Z,98225.14
2019-02-20T10:32:53.669Z,98232.17
2019-02-20T10:35:21.956Z,98222.82
2019-02-20T10:37:50.358Z,98222.09
2019-02-20T10:40:18.686Z,98223.30
2019-02-20T10:42:47.015Z,98227.05
2019-02-20T10:45:15.484Z,98229.48
2019-02-20T10:47:43.918Z,98232.95
2019-02-20T10:50:13.107Z,98239.39
2019-02-20T10:52:41.523Z,98235.56
2019-02-20T10:55:10.231Z,98235.77
2019-02-20T10:57:38.534Z,98240.52
2019-02-20T11:00:23.477Z,98234.91
2019-02-20T11:02:44.159Z,98241.28
2019-02-20T11:05:12.425Z,98234.69
2019-02-20T11:07:40.683Z,98234.33
2019-02-20T11:10:09.015Z,98236.06
2019-02-20T11:12:37.306Z,98244.61
2019-02-20T11:15:06.909Z,98242.02
2019-02-20T11:17:37.001Z,98248.92
2019-02-20T11:20:08.092Z,98242.50
2019-02-20T11:22:36.360Z,98242.31
2019-02-20T11:25:06.961Z,98237.70
2019-02-20T11:27:35.222Z,98242.58
2019-02-20T11:30:03.970Z,98240.00
2019-02-20T11:32:32.223Z,98238.74
2019-02-20T11:35:00.515Z,98235.47
2019-02-20T11:37:28.788Z,98233.50
2019-02-20T11:39:57.032Z,98227.95
2019-02-20T11:42:25.299Z,98223.80
2019-02-20T11:44:53.559Z,98225.33
2019-02-20T11:47:21.821Z,98215.08
2019-02-20T11:49:50.089Z,98209.77
2019-02-20T11:52:18.533Z,98204.28
2019-02-20T11:54:46.782Z,98210.55
2019-02-20T11:57:15.057Z,98202.87
2019-02-20T11:59:43.304Z,98206.67
2019-02-20T12:02:11.576Z,98188.59
2019-02-20T12:04:39.840Z,98192.17
2019-02-20T12:07:08.091Z,98189.95
2019-02-20T12:09:36.384Z,98196.55
2019-02-20T12:12:04.645Z,98200.92
2019-02-20T12:14:32.945Z,98191.12
2019-02-20T12:17:01.208Z,98199.05
2019-02-20T12:19:29.516Z,98195.65
2019-02-20T12:21:57.823Z,98195.81
2019-02-20T12:24:26.085Z,98204.61
2019-02-20T12:26:54.348Z,98199.77
2019-02-20T12:29:22.614Z,98196.65
2019-02-20T12:31:52.640Z,98196.49
2019-02-20T12:34:20.871Z,98195.53
2019-02-20T12:36:49.153Z,98202.64
2019-02-20T12:39:17.470Z,98200.28
2019-02-20T12:41:45.744Z,98201.77
2019-02-20T12:44:13.995Z,98202.80
2019-02-20T12:46:42.255Z,98201.41
2019-02-20T12:49:10.525Z,98201.52
2019-02-20T12:51:38.776Z,98202.78
2019-02-20T12:54:07.053Z,98204.34
2019-02-20T12:56:43.459Z,98207.83
2019-02-20T12:59:07.768Z,98204.00
2019-02-20T13:01:35.445Z,98199.22
2019-02-20T13:04:03.798Z,98201.85
2019-02-20T13:06:32.161Z,98205.38
2019-02-20T13:09:00.503Z,98206.74
2019-02-20T13:11:30.047Z,98200.70
2019-02-20T13:13:58.384Z,98200.87
2019-02-20T13:16:26.730Z,98204.93
2019-02-20T13:18:55.135Z,98200.09
2019-02-20T13:21:23.302Z,98195.69
2019-02-20T13:23:51.722Z,98194.61
2019-02-20T13:26:19.983Z,98194.14
2019-02-20T13:28:48.237Z,98195.07
2019-02-20T13:31:16.493Z,98188.10
2019-02-20T13:33:44.760Z,98190.17
2019-02-20T13:36:13.064Z,98191.70
2019-02-20T13:38:41.324Z,98193.96
2019-02-20T13:41:09.959Z,98198.46
2019-02-20T13:43:38.208Z,98195.05
2019-02-20T13:46:06.456Z,98185.80
2019-02-20T13:48:35.012Z,98194.40
2019-02-20T13:51:03.325Z,98185.06
2019-02-20T13:53:31.612Z,98186.41
2019-02-20T13:55:59.869Z,98181.95
2019-02-20T13:58:28.391Z,98179.91
2019-02-20T14:00:56.673Z,98179.53
2019-02-20T14:03:24.934Z,98183.77
2019-02-20T14:05:53.211Z,98182.77
2019-02-20T14:08:21.465Z,98175.42
2019-02-20T14:10:49.725Z,98180.20
2019-02-20T14:13:17.984Z,98183.36
2019-02-20T14:15:46.607Z,98184.14
2019-02-20T14:18:14.881Z,98179.80
2019-02-20T14:20:43.136Z,98173.59
2019-02-20T14:23:11.408Z,98180.13
2019-02-20T14:25:39.666Z,98178.20
2019-02-20T14:28:08.316Z,98179.20
2019-02-20T14:30:36.565Z,98182.39
2019-02-20T14:33:04.992Z,98171.78
2019-02-20T14:35:33.248Z,98177.39
2019-02-20T14:38:01.500Z,98179.99
2019-02-20T14:40:29.757Z,98187.45
2019-02-20T14:42:58.003Z,98184.00
2019-02-20T14:45:26.283Z,98177.98
2019-02-20T14:47:54.530Z,98178.84
2019-02-20T14:50:23.054Z,98172.83
2019-02-20T14:52:51.316Z,98175.86
2019-02-20T14:55:19.569Z,98174.86
2019-02-20T14:57:47.824Z,98174.25
2019-02-20T15:00:16.455Z,98174.03
2019-02-20T15:02:44.705Z,98177.15
2019-02-20T15:05:12.958Z,98170.62
2019-02-20T15:07:41.234Z,98169.65
2019-02-20T15:10:10.138Z,98167.64
2019-02-20T15:12:38.468Z,98171.42
2019-02-20T15:15:10.828Z,98168.66
2019-02-20T15:17:39.226Z,98171.48
2019-02-20T15:20:08.819Z,98173.53
2019-02-20T15:22:37.979Z,98168.98
2019-02-20T15:25:07.976Z,98176.61
2019-02-20T15:27:36.228Z,98169.05
2019-02-20T15:30:09.558Z,98169.20
2019-02-20T15:32:44.584Z,98172.16
2019-02-20T15:35:13.315Z,98178.27
2019-02-20T15:37:41.566Z,98175.39
2019-02-20T15:40:10.094Z,98173.50
2019-02-20T15:42:38.346Z,98171.36
2019-02-20T15:45:10.772Z,98178.91
2019-02-20T15:47:39.095Z,98169.63
2019-02-20T15:50:12.450Z,98175.39
2019-02-20T15:52:40.717Z,98182.08
2019-02-20T15:55:11.435Z,98174.53
2019-02-20T15:57:39.751Z,98170.28
2019-02-20T16:00:16.131Z,98173.30
2019-02-20T16:02:44.620Z,98176.83
2019-02-20T16:05:13.167Z,98177.23
2019-02-20T16:07:41.540Z,98181.30
2019-02-20T16:10:10.641Z,98180.28
2019-02-20T16:12:38.896Z,98184.09
2019-02-20T16:15:09.394Z,98183.97
2019-02-20T16:17:37.658Z,98187.37
2019-02-20T16:20:08.870Z,98188.88
2019-02-20T16:22:37.107Z,98184.48
2019-02-20T16:25:08.770Z,98188.02
2019-02-20T16:27:37.063Z,98178.84
2019-02-20T16:30:07.967Z,98187.40
2019-02-20T16:32:36.235Z,98193.31
2019-02-20T16:35:07.664Z,98188.16
2019-02-20T16:37:35.480Z,98187.29
2019-02-20T16:40:03.824Z,98191.69
2019-02-20T16:42:32.120Z,98188.68
2019-02-20T16:45:00.344Z,98190.44
2019-02-20T16:47:28.642Z,98186.04
2019-02-20T16:49:56.903Z,98188.16
2019-02-20T16:52:25.207Z,98186.39
2019-02-20T16:54:55.005Z,98187.01
2019-02-20T16:57:24.332Z,98188.70
2019-02-20T16:59:52.760Z,98193.45
2019-02-20T17:02:21.116Z,98201.06
2019-02-20T17:04:49.368Z,98202.78
2019-02-20T17:07:17.662Z,98208.27
2019-02-20T17:09:46.191Z,98205.86
2019-02-20T17:12:14.453Z,98207.94
2019-02-20T17:14:42.721Z,98214.53
2019-02-20T17:17:10.979Z,98214.36
2019-02-20T17:19:39.283Z,98214.45
2019-02-20T17:22:07.930Z,98222.06
2019-02-20T17:24:36.252Z,98221.16
2019-02-20T17:27:04.806Z,98227.75
2019-02-20T17:29:33.155Z,98228.71
2019-02-20T17:32:01.481Z,98227.05
2019-02-20T17:34:29.767Z,98225.80
2019-02-20T17:36:58.021Z,98226.11
2019-02-20T17:39:26.323Z,98224.84
2019-02-20T17:41:54.633Z,98223.49
2019-02-20T17:44:22.916Z,98226.70
2019-02-20T17:46:51.178Z,98229.05
2019-02-20T17:49:19.438Z,98231.97
2019-02-20T17:51:47.699Z,98240.32
2019-02-20T17:54:17.243Z,98242.27
2019-02-20T17:56:45.644Z,98244.49
2019-02-20T17:59:15.266Z,98242.34
2019-02-20T18:01:43.517Z,98252.72
2019-02-20T18:04:11.774Z,98248.25
2019-02-20T18:06:40.042Z,98254.86
2019-02-20T18:09:09.155Z,98261.48
2019-02-20T18:11:37.562Z,98260.77
2019-02-20T18:14:05.994Z,98271.28
2019-02-20T18:16:34.542Z,98270.92
2019-02-20T18:19:03.009Z,98269.53
2019-02-20T18:21:31.362Z,98271.36
2019-02-20T18:23:59.693Z,98264.00
2019-02-20T18:26:28.121Z,98269.84
2019-02-20T18:28:56.458Z,98266.08
2019-02-20T18:31:24.860Z,98273.53
2019-02-20T18:33:53.263Z,98269.77
2019-02-20T18:36:21.584Z,98269.48
2019-02-20T18:38:52.633Z,98271.00
2019-02-20T18:41:20.899Z,98277.50
2019-02-20T18:43:49.155Z,98284.90
2019-02-20T18:46:19.090Z,98294.19
2019-02-20T18:48:47.374Z,98294.40
2019-02-20T18:51:15.643Z,98291.39
2019-02-20T18:53:44.996Z,98293.31
2019-02-20T18:56:13.585Z,98296.53
2019-02-20T18:58:43.659Z,98296.92
2019-02-20T19:01:12.012Z,98299.84
2019-02-20T19:03:40.399Z,98308.89
2019-02-20T19:06:08.690Z,98306.92
2019-02-20T19:08:45.279Z,98304.95
2019-02-20T19:11:29.165Z,98307.37
2019-02-20T19:14:18.658Z,98307.28
2019-02-20T19:17:23.300Z,98305.37
2019-02-20T19:20:13.269Z,98311.47
2019-02-20T19:22:54.142Z,98308.17
2019-02-20T19:25:43.729Z,98306.34
2019-02-20T19:28:17.799Z,98304.81
2019-02-20T19:31:05.848Z,98303.53
2019-02-20T19:33:47.989Z,98301.63
2019-02-20T19:36:42.256Z,98304.63
2019-02-20T19:39:34.809Z,98310.23
2019-02-20T19:42:06.370Z,98311.83
2019-02-20T19:44:56.882Z,98310.53
2019-02-20T19:47:34.217Z,98323.29
2019-02-20T19:50:20.562Z,98321.23
2019-02-20T19:52:57.657Z,98328.23
2019-02-20T19:55:29.169Z,98327.53
2019-02-20T19:58:18.579Z,98333.28
2019-02-20T20:00:59.043Z,98328.73
2019-02-20T20:03:50.211Z,98332.28
2019-02-20T20:06:30.703Z,98334.48
2019-02-20T20:09:24.214Z,98334.02
2019-02-20T20:12:10.313Z,98341.60
2019-02-20T20:14:44.653Z,98345.25
2019-02-20T20:17:40.116Z,98343.98
2019-02-20T20:20:26.518Z,98344.47
2019-02-20T20:23:06.745Z,98344.52
2019-02-20T20:25:43.989Z,98343.13
2019-02-20T20:28:18.386Z,98344.95
2019-02-20T20:31:01.977Z,98351.50
2019-02-20T20:33:45.268Z,98348.62
2019-02-20T20:36:25.569Z,98347.61
2019-02-20T20:39:19.567Z,98357.34
2019-02-20T20:42:06.227Z,98356.09
2019-02-20T20:44:46.386Z,98359.25
2019-02-20T20:47:36.116Z,98364.98
2019-02-20T20:50:16.427Z,98364.87
2019-02-20T20:52:51.662Z,98366.62
2019-02-20T20:55:26.946Z,98366.39
2019-02-20T20:58:07.302Z,98365.06
2019-02-20T21:00:41.404Z,98362.88
2019-02-20T21:03:12.925Z,98363.78
2019-02-20T21:05:50.299Z,98370.06
2019-02-20T21:08:24.458Z,98363.47
2019-02-20T21:10:58.707Z,98369.50
2019-02-20T21:13:34.813Z,98367.17
2019-02-20T21:16:21.134Z,98371.11
2019-02-20T21:19:21.338Z,98370.17
2019-02-20T21:21:49.748Z,98374.34
2019-02-20T21:24:39.163Z,98372.20
2019-02-20T21:27:10.733Z,98376.29
2019-02-20T21:29:53.802Z,98377.19
2019-02-20T21:32:46.697Z,98374.89
2019-02-20T21:35:21.038Z,98374.89
2019-02-20T21:38:10.804Z,98373.80
2019-02-20T21:41:00.175Z,98371.69
2019-02-20T21:43:59.207Z,97885.92
2019-02-20T21:46:48.103Z,98372.94
2019-02-20T21:49:28.728Z,98372.98
2019-02-20T21:52:02.995Z,98372.04
2019-02-20T21:54:51.230Z,98375.63
2019-02-20T21:57:42.133Z,98381.73
2019-02-20T22:00:15.351Z,98385.44
2019-02-20T22:02:55.862Z,98383.69
2019-02-20T22:05:45.554Z,98186.43
2019-02-20T22:08:25.878Z,98390.43
2019-02-20T22:11:06.503Z,98390.11
2019-02-20T22:14:07.102Z,98386.06
2019-02-20T22:16:41.358Z,98391.59
2019-02-20T22:19:45.925Z,98385.20
2019-02-20T22:22:29.251Z,98389.33
2019-02-20T22:25:26.277Z,98393.30
2019-02-20T22:28:12.676Z,98391.73
2019-02-20T22:30:47.161Z,98388.80
2019-02-20T22:33:27.125Z,98385.00
2019-02-20T22:36:23.170Z,98380.95
2019-02-20T22:39:10.013Z,98377.14
2019-02-20T22:41:58.184Z,98380.02
2019-02-20T22:45:01.451Z,98385.00
2019-02-20T22:47:38.908Z,98382.34
2019-02-20T22:50:22.277Z,98390.44
2019-02-20T22:53:08.910Z,98387.05
2019-02-20T22:56:01.456Z,98388.30
2019-02-20T22:58:51.176Z,98382.41
2019-02-20T23:01:37.896Z,98383.02
2019-02-20T23:04:30.482Z,98383.76
2019-02-20T23:07:02.032Z,98379.41
2019-02-20T23:09:42.370Z,98379.20
2019-02-20T23:12:16.730Z,98377.77
2019-02-20T23:14:53.376Z,98390.52
2019-02-20T23:17:21.758Z,98384.97
2019-02-20T23:19:50.044Z,98389.02
2019-02-20T23:22:18.338Z,98387.94
2019-02-20T23:24:49.319Z,98390.63
2019-02-20T23:27:17.565Z,98398.53
2019-02-20T23:29:45.829Z,98400.25
2019-02-20T23:32:14.088Z,98399.22
2019-02-20T23:34:42.361Z,98395.65
2019-02-20T23:37:10.645Z,98405.96
2019-02-20T23:39:38.904Z,98397.41
2019-02-20T23:42:07.239Z,98402.03
2019-02-20T23:44:35.504Z,98403.44
2019-02-20T23:47:03.778Z,98409.29
2019-02-20T23:49:32.047Z,98402.20
2019-02-20T23:52:00.384Z,98403.95
2019-02-20T23:54:31.114Z,98406.93
2019-02-20T23:56:59.401Z,98406.55
2019-02-20T23:59:27.763Z,98404.39
